Time;durP1;ratioP1;P1;durP2;ratioP2;P2;SDS_P1;SDS_P2;PMS_P1;PMS_P2;Temp;Humidity;BMP_temperature;BMP_pressure;BME280_temperature;BME280_humidity;BME280_pressure;Samples;Min_cycle;Max_cycle;Signal;HPM_P1;HPM_P2
2023/10/01 07:58:56;;;;;;;0.47;0.47;;;;;;;;;;5115726;27;20554;-84
2023/10/01 08:01:36;;;;;;;0.40;0.40;;;;;;;;;;5113208;28;20429;-84
2023/10/01 08:04:06;;;;;;;0.30;0.30;;;;;;;;;;5114008;28;20158;-86
2023/10/01 08:06:42;;;;;;;0.40;0.40;;;;;;;;;;5114333;28;20196;-85
2023/10/01 08:09:12;;;;;;;0.40;0.40;;;;;;;;;;5113896;28;20173;-85
2023/10/01 08:14:26;;;;;;;0.40;0.40;;;;;;;;;;5110596;28;20189;-83
2023/10/01 08:16:53;;;;;;;0.50;0.50;;;;;;;;;;5103602;28;20212;-82
2023/10/01 08:19:22;;;;;;;0.60;0.60;;;;;;;;;;5108912;27;20158;-84
2023/10/01 08:21:50;;;;;;;0.60;0.60;;;;;;;;;;5101540;28;20211;-86
2023/10/01 08:24:20;;;;;;;0.60;0.60;;;;;;;;;;5109233;28;20186;-85
2023/10/01 08:27:12;;;;;;;0.60;0.60;;;;;;;;;;5112465;28;20166;-85
2023/10/01 08:32:23;;;;;;;0.50;0.50;;;;;;;;;;5082820;28;20213;-86
2023/10/01 08:35:01;;;;;;;0.70;0.70;;;;;;;;;;5090337;28;20257;-86
2023/10/01 08:37:37;;;;;;;0.60;0.60;;;;;;;;;;5089060;28;20201;-86
2023/10/01 08:40:14;;;;;;;0.50;0.50;;;;;;;;;;5089989;28;20232;-85
2023/10/01 08:42:44;;;;;;;0.50;0.50;;;;;;;;;;5083408;28;20264;-84
2023/10/01 08:45:12;;;;;;;0.53;0.53;;;;;;;;;;5095745;28;20185;-84
2023/10/01 08:47:38;;;;;;;0.50;0.50;;;;;;;;;;5096590;28;20182;-85
2023/10/01 08:50:27;;;;;;;0.60;0.60;;;;;;;;;;5098058;28;20185;-84
2023/10/01 08:52:57;;;;;;;0.60;0.60;;;;;;;;;;5096588;28;20229;-85
2023/10/01 08:55:39;;;;;;;0.60;0.60;;;;;;;;;;5078897;28;20668;-87
2023/10/01 08:58:14;;;;;;;0.63;0.63;;;;;;;;;;5076636;28;20236;-85
2023/10/01 09:00:48;;;;;;;0.50;0.50;;;;;;;;;;5083419;28;20831;-85
2023/10/01 09:03:26;;;;;;;0.60;0.60;;;;;;;;;;5085538;28;20687;-85
2023/10/01 09:06:01;;;;;;;0.60;0.60;;;;;;;;;;5090440;28;20166;-88
2023/10/01 09:08:54;;;;;;;0.60;0.60;;;;;;;;;;5084977;28;20174;-84
2023/10/01 09:11:15;;;;;;;0.68;0.68;;;;;;;;;;5075169;28;20276;-86
2023/10/01 09:13:57;;;;;;;0.50;0.50;;;;;;;;;;5059473;28;20175;-86
2023/10/01 09:16:30;;;;;;;0.60;0.60;;;;;;;;;;5062552;28;20185;-89
2023/10/01 09:19:03;;;;;;;0.67;0.67;;;;;;;;;;5071352;28;20189;-86
2023/10/01 09:21:40;;;;;;;0.60;0.60;;;;;;;;;;5078723;28;20275;-86
2023/10/01 09:24:31;;;;;;;0.40;0.40;;;;;;;;;;5074059;28;20175;-83
2023/10/01 09:27:08;;;;;;;0.60;0.60;;;;;;;;;;5062268;28;20168;-87
2023/10/01 09:29:43;;;;;;;0.47;0.47;;;;;;;;;;5070781;28;20190;-84
2023/10/01 09:32:11;;;;;;;0.50;0.50;;;;;;;;;;5077890;28;20201;-91
2023/10/01 09:34:46;;;;;;;0.50;0.50;;;;;;;;;;5078724;28;20183;-89
2023/10/01 09:37:33;;;;;;;0.50;0.50;;;;;;;;;;5077153;28;20621;-91
2023/10/01 09:40:32;;;;;;;0.40;0.40;;;;;;;;;;5077336;28;20573;-90
2023/10/01 09:42:57;;;;;;;0.45;0.45;;;;;;;;;;5069973;28;20229;-89
2023/10/01 09:45:26;;;;;;;0.40;0.40;;;;;;;;;;5059954;28;20549;-89
2023/10/01 09:47:57;;;;;;;0.30;0.30;;;;;;;;;;5065344;28;20725;-91
2023/10/01 09:50:23;;;;;;;0.30;0.30;;;;;;;;;;5062972;28;20183;-87
2023/10/01 09:52:52;;;;;;;0.30;0.30;;;;;;;;;;5072397;28;20194;-88
2023/10/01 09:55:26;;;;;;;0.25;0.25;;;;;;;;;;5067386;28;20313;-90
2023/10/01 09:57:56;;;;;;;0.30;0.30;;;;;;;;;;5056557;28;20274;-88
2023/10/01 10:00:39;;;;;;;0.40;0.40;;;;;;;;;;5059570;28;20225;-88
2023/10/01 10:03:09;;;;;;;0.30;0.30;;;;;;;;;;5059661;28;20179;-88
2023/10/01 10:05:36;;;;;;;0.30;0.30;;;;;;;;;;5070885;28;20171;-88
2023/10/01 10:08:16;;;;;;;0.50;0.50;;;;;;;;;;5087907;28;20205;-87
2023/10/01 10:10:48;;;;;;;0.40;0.40;;;;;;;;;;5096286;28;20224;-87
2023/10/01 10:13:36;;;;;;;0.25;0.25;;;;;;;;;;5095835;28;20163;-88
2023/10/01 10:16:28;;;;;;;0.20;0.20;;;;;;;;;;5077572;28;20181;-86
2023/10/01 10:19:20;;;;;;;0.43;0.43;;;;;;;;;;5077802;28;20186;-87
2023/10/01 10:24:31;;;;;;;0.20;0.20;;;;;;;;;;5096370;28;20202;-87
2023/10/01 10:26:58;;;;;;;0.20;0.20;;;;;;;;;;5101014;28;20180;-85
2023/10/01 10:29:24;;;;;;;0.28;0.28;;;;;;;;;;5097167;28;20177;-87
2023/10/01 10:32:09;;;;;;;0.20;0.20;;;;;;;;;;5096727;28;20200;-86
2023/10/01 10:34:36;;;;;;;0.22;0.22;;;;;;;;;;5098730;28;20255;-87
2023/10/01 10:37:06;;;;;;;0.10;0.10;;;;;;;;;;5096165;28;20205;-88
2023/10/01 10:39:53;;;;;;;0.30;0.30;;;;;;;;;;5106831;28;20196;-89
2023/10/01 10:42:33;;;;;;;0.30;0.30;;;;;;;;;;5111639;28;20407;-89
2023/10/01 10:45:20;;;;;;;0.57;0.57;;;;;;;;;;5109866;28;20178;-89
2023/10/01 10:48:03;;;;;;;0.40;0.40;;;;;;;;;;5102952;28;20465;-89
2023/10/01 10:50:48;;;;;;;0.60;0.60;;;;;;;;;;5088674;28;20576;-90
2023/10/01 10:53:20;;;;;;;0.47;0.47;;;;;;;;;;5079745;28;20190;-85
2023/10/01 10:56:02;;;;;;;0.43;0.43;;;;;;;;;;5075792;28;20265;-89
2023/10/01 10:58:31;;;;;;;0.50;0.50;;;;;;;;;;5076602;28;20606;-89
2023/10/01 11:01:15;;;;;;;0.30;0.30;;;;;;;;;;5070467;28;20195;-88
2023/10/01 11:03:42;;;;;;;0.60;0.60;;;;;;;;;;5068241;28;20182;-88
2023/10/01 11:06:17;;;;;;;0.40;0.40;;;;;;;;;;5056828;28;20258;-88
2023/10/01 11:08:50;;;;;;;0.50;0.50;;;;;;;;;;5058661;28;20659;-88
2023/10/01 11:11:39;;;;;;;0.60;0.60;;;;;;;;;;5058279;28;20284;-85
2023/10/01 11:14:12;;;;;;;0.32;0.32;;;;;;;;;;5057469;28;20184;-86
2023/10/01 11:16:40;;;;;;;0.43;0.43;;;;;;;;;;5054994;28;20171;-86
2023/10/01 11:19:13;;;;;;;0.32;0.32;;;;;;;;;;5056718;28;20175;-85
2023/10/01 11:21:44;;;;;;;0.50;0.50;;;;;;;;;;5070784;28;20190;-88
2023/10/01 11:24:12;;;;;;;0.40;0.40;;;;;;;;;;5075459;28;20175;-84
2023/10/01 11:26:59;;;;;;;0.40;0.40;;;;;;;;;;5075995;28;20174;-83
2023/10/01 11:29:29;;;;;;;0.40;0.40;;;;;;;;;;5085749;28;20181;-85
2023/10/01 11:31:55;;;;;;;0.52;0.52;;;;;;;;;;5087651;28;20202;-87
2023/10/01 11:34:26;;;;;;;0.40;0.40;;;;;;;;;;5091916;28;20189;-86
2023/10/01 11:36:57;;;;;;;0.55;0.55;;;;;;;;;;5085942;28;20183;-88
2023/10/01 11:39:40;;;;;;;0.47;0.47;;;;;;;;;;5064123;28;20154;-88
2023/10/01 11:42:19;;;;;;;0.40;0.40;;;;;;;;;;5074386;28;20213;-86
2023/10/01 11:44:52;;;;;;;0.25;0.25;;;;;;;;;;5071873;28;20197;-89
2023/10/01 11:47:31;;;;;;;0.50;0.50;;;;;;;;;;5073491;28;20175;-87
2023/10/01 11:50:07;;;;;;;0.08;0.08;;;;;;;;;;5080913;28;20400;-86
2023/10/01 11:52:33;;;;;;;0.10;0.10;;;;;;;;;;5071971;28;20198;-85
2023/10/01 11:55:01;;;;;;;0.20;0.20;;;;;;;;;;5072166;28;20179;-87
2023/10/01 11:57:31;;;;;;;0.13;0.13;;;;;;;;;;5070905;28;20272;-87
2023/10/01 11:59:58;;;;;;;0.35;0.35;;;;;;;;;;5072140;28;20164;-85
2023/10/01 12:02:43;;;;;;;0.30;0.30;;;;;;;;;;5071484;28;20185;-85
2023/10/01 12:05:13;;;;;;;0.43;0.43;;;;;;;;;;5066702;28;20178;-86
2023/10/01 12:07:45;;;;;;;0.43;0.43;;;;;;;;;;5063493;28;20185;-85
2023/10/01 12:12:57;;;;;;;0.50;0.50;;;;;;;;;;5059504;28;20695;-86
2023/10/01 12:18:13;;;;;;;0.20;0.20;;;;;;;;;;5056795;28;20696;-85
2023/10/01 12:20:40;;;;;;;0.28;0.28;;;;;;;;;;5055938;28;20274;-85
2023/10/01 12:23:13;;;;;;;0.40;0.40;;;;;;;;;;5054747;28;20582;-85
2023/10/01 12:25:46;;;;;;;0.20;0.20;;;;;;;;;;5058414;28;20194;-84
2023/10/01 12:28:28;;;;;;;0.47;0.47;;;;;;;;;;5057946;28;20182;-85
2023/10/01 12:30:58;;;;;;;0.43;0.43;;;;;;;;;;5058833;28;20201;-84
2023/10/01 12:33:46;;;;;;;0.20;0.20;;;;;;;;;;5060240;28;20190;-85
2023/10/01 12:39:16;;;;;;;0.40;0.40;;;;;;;;;;5070064;28;20201;-84
2023/10/01 12:46:54;;;;;;;0.40;0.40;;;;;;;;;;5073274;28;20273;-85
2023/10/01 12:49:20;;;;;;;0.40;0.40;;;;;;;;;;5075346;28;20171;-88
2023/10/01 12:51:48;;;;;;;0.40;0.40;;;;;;;;;;5075792;28;20195;-86
2023/10/01 12:54:27;;;;;;;0.28;0.28;;;;;;;;;;5081940;28;20179;-89
2023/10/01 12:57:02;;;;;;;0.40;0.40;;;;;;;;;;5079833;28;20213;-89
2023/10/01 12:59:39;;;;;;;0.40;0.40;;;;;;;;;;5089329;28;20261;-88
2023/10/01 13:02:22;;;;;;;0.60;0.60;;;;;;;;;;5080571;28;20194;-91
2023/10/01 13:05:16;;;;;;;0.60;0.60;;;;;;;;;;5075088;28;20182;-87
2023/10/01 13:07:37;;;;;;;0.60;0.60;;;;;;;;;;5076585;28;20183;-86
2023/10/01 13:10:06;;;;;;;0.60;0.60;;;;;;;;;;5075368;28;20179;-88
2023/10/01 13:12:39;;;;;;;0.53;0.53;;;;;;;;;;5068667;28;20203;-86
2023/10/01 13:15:15;;;;;;;0.60;0.60;;;;;;;;;;5070716;28;20190;-85
2023/10/01 13:17:45;;;;;;;0.60;0.60;;;;;;;;;;5061946;28;20205;-86
2023/10/01 13:20:28;;;;;;;0.50;0.50;;;;;;;;;;5066242;28;20233;-86
2023/10/01 13:22:59;;;;;;;0.63;0.63;;;;;;;;;;5069706;28;20586;-85
2023/10/01 13:25:28;;;;;;;0.50;0.50;;;;;;;;;;5071071;28;20175;-85
2023/10/01 13:28:01;;;;;;;0.50;0.50;;;;;;;;;;5078873;28;20186;-87
2023/10/01 13:31:03;;;;;;;0.53;0.53;;;;;;;;;;5073275;28;20171;-84
2023/10/01 13:36:23;;;;;;;0.60;0.60;;;;;;;;;;5064004;28;20186;-85
2023/10/01 13:38:56;;;;;;;0.60;0.60;;;;;;;;;;5062656;28;20182;-86
2023/10/01 14:08:45;;;;;;;0.40;0.40;;;;;;;;;;5094571;28;20177;-83
2023/10/01 14:11:12;;;;;;;0.40;0.40;;;;;;;;;;5096170;28;20190;-84
2023/10/01 14:13:41;;;;;;;0.50;0.50;;;;;;;;;;5095646;28;20238;-83
2023/10/01 14:16:17;;;;;;;0.50;0.50;;;;;;;;;;5085325;28;20197;-86
2023/10/01 14:19:13;;;;;;;0.53;0.53;;;;;;;;;;5086043;28;20212;-86
2023/10/01 14:21:39;;;;;;;0.43;0.43;;;;;;;;;;5077692;28;20209;-84
2023/10/01 14:26:50;;;;;;;0.57;0.57;;;;;;;;;;5078702;28;20240;-84
2023/10/01 14:29:22;;;;;;;0.60;0.60;;;;;;;;;;5095643;28;20174;-84
2023/10/01 14:31:50;;;;;;;0.50;0.50;;;;;;;;;;5096996;28;20206;-85
2023/10/01 14:34:18;;;;;;;0.50;0.50;;;;;;;;;;5095322;28;20181;-85
2023/10/01 14:36:47;;;;;;;0.50;0.50;;;;;;;;;;5115488;28;20209;-84
2023/10/01 14:39:14;;;;;;;0.50;0.50;;;;;;;;;;5116156;28;20241;-84
2023/10/01 14:41:50;;;;;;;0.50;0.50;;;;;;;;;;5116251;28;20188;-84
2023/10/01 14:44:24;;;;;;;0.50;0.50;;;;;;;;;;5098951;28;20418;-88
2023/10/01 14:46:53;;;;;;;0.53;0.53;;;;;;;;;;5092039;28;20191;-87
2023/10/01 14:49:22;;;;;;;0.40;0.40;;;;;;;;;;5076894;28;20201;-89
2023/10/01 14:51:49;;;;;;;0.50;0.50;;;;;;;;;;5075737;28;20217;-88
2023/10/01 14:54:16;;;;;;;0.60;0.60;;;;;;;;;;5076917;28;20182;-87
2023/10/01 14:56:43;;;;;;;0.40;0.40;;;;;;;;;;5074092;28;20201;-88
2023/10/01 14:59:13;;;;;;;0.47;0.47;;;;;;;;;;5074215;28;20170;-87
2023/10/01 15:01:41;;;;;;;0.30;0.30;;;;;;;;;;5075150;28;20201;-86
2023/10/01 15:04:17;;;;;;;0.40;0.40;;;;;;;;;;5076011;28;20170;-86
2023/10/01 15:06:57;;;;;;;0.40;0.40;;;;;;;;;;5075745;28;20215;-86
2023/10/01 15:09:27;;;;;;;0.40;0.40;;;;;;;;;;5070572;28;20174;-88
2023/10/01 15:11:57;;;;;;;0.40;0.40;;;;;;;;;;5075902;28;20313;-86
2023/10/01 15:14:26;;;;;;;0.50;0.50;;;;;;;;;;5076769;28;20181;-87
2023/10/01 15:16:56;;;;;;;0.60;0.60;;;;;;;;;;5082600;28;20198;-88
2023/10/01 15:19:25;;;;;;;0.43;0.43;;;;;;;;;;5095348;28;20182;-89
2023/10/01 15:22:02;;;;;;;0.50;0.50;;;;;;;;;;5094914;28;20205;-88
2023/10/01 15:24:28;;;;;;;0.40;0.40;;;;;;;;;;5076950;28;20202;-84
2023/10/01 15:26:58;;;;;;;0.40;0.40;;;;;;;;;;5075568;28;20206;-87
2023/10/01 15:29:31;;;;;;;0.50;0.50;;;;;;;;;;5075679;28;20187;-85
2023/10/01 15:31:57;;;;;;;0.47;0.47;;;;;;;;;;5079886;28;20198;-87
2023/10/01 15:34:23;;;;;;;0.50;0.50;;;;;;;;;;5082149;28;20178;-88
2023/10/01 15:36:49;;;;;;;0.50;0.50;;;;;;;;;;5095693;28;20206;-89
2023/10/01 15:44:43;;;;;;;0.37;0.37;;;;;;;;;;5075005;28;20206;-88
2023/10/01 15:50:13;;;;;;;0.40;0.40;;;;;;;;;;5076114;28;20233;-88
2023/10/01 15:52:47;;;;;;;0.40;0.40;;;;;;;;;;5076634;28;20190;-87
2023/10/01 15:55:18;;;;;;;0.33;0.33;;;;;;;;;;5076378;28;20166;-91
2023/10/01 15:58:01;;;;;;;0.40;0.40;;;;;;;;;;5074586;28;20210;-89
2023/10/01 16:00:27;;;;;;;0.40;0.40;;;;;;;;;;5074914;28;20178;-91
2023/10/01 16:03:02;;;;;;;0.30;0.30;;;;;;;;;;5076727;28;20194;-85
2023/10/01 16:05:49;;;;;;;0.30;0.30;;;;;;;;;;5061671;28;20282;-82
2023/10/01 16:08:20;;;;;;;0.30;0.30;;;;;;;;;;5058865;28;20209;-83
2023/10/01 16:10:47;;;;;;;0.40;0.40;;;;;;;;;;5057511;28;20540;-83
2023/10/01 16:13:14;;;;;;;0.30;0.30;;;;;;;;;;5062154;28;20206;-83
2023/10/01 16:15:46;;;;;;;0.30;0.30;;;;;;;;;;5060097;28;20229;-84
2023/10/01 16:18:16;;;;;;;0.40;0.40;;;;;;;;;;5060537;28;20214;-83
2023/10/01 16:20:42;;;;;;;0.40;0.40;;;;;;;;;;5072457;28;20207;-87
2023/10/01 16:23:15;;;;;;;0.37;0.37;;;;;;;;;;5078362;28;20238;-86
2023/10/01 16:25:41;;;;;;;0.43;0.43;;;;;;;;;;5068236;28;20186;-90
2023/10/01 16:28:19;;;;;;;0.33;0.33;;;;;;;;;;5060483;28;20202;-87
2023/10/01 16:31:05;;;;;;;0.43;0.43;;;;;;;;;;5076399;28;20186;-85
2023/10/01 16:33:41;;;;;;;0.40;0.40;;;;;;;;;;5091349;28;20193;-85
2023/10/01 16:36:07;;;;;;;0.30;0.30;;;;;;;;;;5100554;28;20181;-85
2023/10/01 16:38:33;;;;;;;0.40;0.40;;;;;;;;;;5091520;28;20375;-86
2023/10/01 16:41:00;;;;;;;0.40;0.40;;;;;;;;;;5077894;28;20206;-87
2023/10/01 16:43:32;;;;;;;0.30;0.30;;;;;;;;;;5077460;28;20186;-87
2023/10/01 16:46:02;;;;;;;0.40;0.40;;;;;;;;;;5078720;28;20183;-92
2023/10/01 16:48:29;;;;;;;0.30;0.30;;;;;;;;;;5063942;28;20189;-92
2023/10/01 16:50:56;;;;;;;0.30;0.30;;;;;;;;;;5060879;28;20211;-91
2023/10/01 16:53:26;;;;;;;0.20;0.20;;;;;;;;;;5072667;28;20213;-91
2023/10/01 16:55:55;;;;;;;0.40;0.40;;;;;;;;;;5075345;28;20186;-93
2023/10/01 16:58:32;;;;;;;0.27;0.27;;;;;;;;;;5067091;28;20226;-88
2023/10/01 17:01:16;;;;;;;0.30;0.30;;;;;;;;;;5074605;28;20205;-87
2023/10/01 17:04:01;;;;;;;0.23;0.23;;;;;;;;;;5076847;28;20180;-88
2023/10/01 17:06:29;;;;;;;0.20;0.20;;;;;;;;;;5082307;28;20178;-87
2023/10/01 17:08:56;;;;;;;0.20;0.20;;;;;;;;;;5079374;28;20178;-87
2023/10/01 17:11:23;;;;;;;0.30;0.30;;;;;;;;;;5071072;28;20190;-88
2023/10/01 17:13:50;;;;;;;0.30;0.30;;;;;;;;;;5071690;28;20242;-86
2023/10/01 17:16:18;;;;;;;0.23;0.23;;;;;;;;;;5085645;28;20639;-87
2023/10/01 17:18:49;;;;;;;0.23;0.23;;;;;;;;;;5069321;28;20206;-88
2023/10/01 17:21:25;;;;;;;0.30;0.30;;;;;;;;;;5087309;28;20194;-89
2023/10/01 17:23:54;;;;;;;0.20;0.20;;;;;;;;;;5081010;28;20170;-86
2023/10/01 17:26:25;;;;;;;0.30;0.30;;;;;;;;;;5079130;28;20540;-86
2023/10/01 17:28:52;;;;;;;0.33;0.33;;;;;;;;;;5076185;28;20721;-87
2023/10/01 17:31:19;;;;;;;0.40;0.40;;;;;;;;;;5058721;28;20191;-86
2023/10/01 17:33:46;;;;;;;0.30;0.30;;;;;;;;;;5070015;28;20186;-88
2023/10/01 17:36:13;;;;;;;0.30;0.30;;;;;;;;;;5078540;28;20177;-88
2023/10/01 17:38:39;;;;;;;0.30;0.30;;;;;;;;;;5089404;28;20206;-89
2023/10/01 17:41:18;;;;;;;0.40;0.40;;;;;;;;;;5082427;28;20182;-84
2023/10/01 17:43:58;;;;;;;0.30;0.30;;;;;;;;;;5079987;28;20191;-85
2023/10/01 17:46:39;;;;;;;0.30;0.30;;;;;;;;;;5101506;28;20172;-86
2023/10/01 17:49:06;;;;;;;0.40;0.40;;;;;;;;;;5073326;28;20210;-86
2023/10/01 17:51:55;;;;;;;0.33;0.33;;;;;;;;;;5100086;28;20227;-86
2023/10/01 17:54:23;;;;;;;0.40;0.40;;;;;;;;;;5080895;28;20180;-85
2023/10/01 17:56:49;;;;;;;0.40;0.40;;;;;;;;;;5078442;28;20174;-86
2023/10/01 17:59:17;;;;;;;0.30;0.30;;;;;;;;;;5093942;28;20256;-87
2023/10/01 18:01:44;;;;;;;0.40;0.40;;;;;;;;;;5069077;28;20209;-87
2023/10/01 18:04:21;;;;;;;0.50;0.50;;;;;;;;;;5081784;28;20183;-86
2023/10/01 18:06:54;;;;;;;0.50;0.50;;;;;;;;;;5077096;28;20724;-89
2023/10/01 18:09:21;;;;;;;0.57;0.57;;;;;;;;;;5061909;28;20191;-90
2023/10/01 18:11:47;;;;;;;0.40;0.40;;;;;;;;;;5076145;28;20202;-90
2023/10/01 18:14:15;;;;;;;0.50;0.50;;;;;;;;;;5062230;28;20179;-91
2023/10/01 18:16:42;;;;;;;0.57;0.57;;;;;;;;;;5077401;28;20449;-89
2023/10/01 18:19:09;;;;;;;0.50;0.50;;;;;;;;;;5078835;28;20186;-90
2023/10/01 18:21:39;;;;;;;0.33;0.33;;;;;;;;;;5096468;28;20186;-89
2023/10/01 18:24:07;;;;;;;0.50;0.50;;;;;;;;;;5094083;28;20171;-89
2023/10/01 18:26:34;;;;;;;0.40;0.40;;;;;;;;;;5079675;28;20270;-91
2023/10/01 18:29:00;;;;;;;0.50;0.50;;;;;;;;;;5076961;28;20170;-87
2023/10/01 18:31:26;;;;;;;0.40;0.40;;;;;;;;;;5079463;28;20538;-87
2023/10/01 18:33:54;;;;;;;0.50;0.50;;;;;;;;;;5081161;28;20183;-89
2023/10/01 18:36:21;;;;;;;0.40;0.40;;;;;;;;;;5095670;28;20166;-88
2023/10/01 18:38:48;;;;;;;0.50;0.50;;;;;;;;;;5098829;28;20222;-88
2023/10/01 18:41:20;;;;;;;0.43;0.43;;;;;;;;;;5088693;28;20214;-89
2023/10/01 18:43:46;;;;;;;0.50;0.50;;;;;;;;;;5092409;28;20303;-89
2023/10/01 18:46:12;;;;;;;0.50;0.50;;;;;;;;;;5086472;28;20254;-90
2023/10/01 18:48:39;;;;;;;0.40;0.40;;;;;;;;;;5085342;28;20221;-89
2023/10/01 18:51:06;;;;;;;0.30;0.30;;;;;;;;;;5090199;28;20271;-90
2023/10/01 18:53:32;;;;;;;0.40;0.40;;;;;;;;;;5091360;28;20159;-87
2023/10/01 18:55:58;;;;;;;0.50;0.50;;;;;;;;;;5077038;28;20255;-86
2023/10/01 18:58:24;;;;;;;0.50;0.50;;;;;;;;;;5062517;28;20215;-91
2023/10/01 19:00:53;;;;;;;0.40;0.40;;;;;;;;;;5061247;28;20242;-89
2023/10/01 19:03:19;;;;;;;0.50;0.50;;;;;;;;;;5077301;28;20221;-90
2023/10/01 19:05:45;;;;;;;0.40;0.40;;;;;;;;;;5064513;28;20190;-88
2023/10/01 19:08:11;;;;;;;0.33;0.33;;;;;;;;;;5077056;28;20182;-88
2023/10/01 19:10:37;;;;;;;0.40;0.40;;;;;;;;;;5062375;28;20795;-90
2023/10/01 19:13:04;;;;;;;0.40;0.40;;;;;;;;;;5077136;28;20228;-91
2023/10/01 19:15:31;;;;;;;0.50;0.50;;;;;;;;;;5072392;28;20193;-91
2023/10/01 19:17:58;;;;;;;0.50;0.50;;;;;;;;;;5064770;28;20202;-91
2023/10/01 19:20:25;;;;;;;0.37;0.37;;;;;;;;;;5080776;28;20186;-90
2023/10/01 19:22:57;;;;;;;0.40;0.40;;;;;;;;;;5090158;28;20221;-88
2023/10/01 19:25:25;;;;;;;0.50;0.50;;;;;;;;;;5076478;28;20167;-88
2023/10/01 19:27:57;;;;;;;0.40;0.40;;;;;;;;;;5076801;28;20244;-91
2023/10/01 19:30:24;;;;;;;0.50;0.50;;;;;;;;;;5055456;28;20183;-90
2023/10/01 19:32:50;;;;;;;0.50;0.50;;;;;;;;;;5075062;28;20186;-91
2023/10/01 19:35:20;;;;;;;0.30;0.30;;;;;;;;;;5065862;28;20270;-88
2023/10/01 19:37:46;;;;;;;0.50;0.50;;;;;;;;;;5069860;28;20233;-89
2023/10/01 19:40:21;;;;;;;0.50;0.50;;;;;;;;;;5082495;28;20186;-87
2023/10/01 19:42:50;;;;;;;0.50;0.50;;;;;;;;;;5087700;28;20216;-88
2023/10/01 19:45:22;;;;;;;0.50;0.50;;;;;;;;;;5093695;28;20163;-87
2023/10/01 19:47:49;;;;;;;0.40;0.40;;;;;;;;;;5082544;28;20178;-88
2023/10/01 19:50:34;;;;;;;0.50;0.50;;;;;;;;;;5080190;28;20549;-87
2023/10/01 19:53:14;;;;;;;0.50;0.50;;;;;;;;;;5076423;28;20280;-87
2023/10/01 19:55:54;;;;;;;0.30;0.30;;;;;;;;;;5062554;28;20182;-89
2023/10/01 19:58:21;;;;;;;0.50;0.50;;;;;;;;;;5072519;28;20691;-88
2023/10/01 20:00:49;;;;;;;0.50;0.50;;;;;;;;;;5073860;28;20182;-87
2023/10/01 20:03:16;;;;;;;0.50;0.50;;;;;;;;;;5074229;28;20186;-88
2023/10/01 20:05:43;;;;;;;0.40;0.40;;;;;;;;;;5060420;28;20171;-86
2023/10/01 20:08:09;;;;;;;0.40;0.40;;;;;;;;;;5074673;28;20569;-85
2023/10/01 20:10:36;;;;;;;0.43;0.43;;;;;;;;;;5072320;28;20269;-86
2023/10/01 20:13:03;;;;;;;0.50;0.50;;;;;;;;;;5074697;28;20175;-90
2023/10/01 20:15:30;;;;;;;0.40;0.40;;;;;;;;;;5075573;28;20178;-89
2023/10/01 20:18:05;;;;;;;0.50;0.50;;;;;;;;;;5091696;28;20218;-83
2023/10/01 20:20:34;;;;;;;0.47;0.47;;;;;;;;;;5096994;28;20180;-83
2023/10/01 20:23:00;;;;;;;0.30;0.30;;;;;;;;;;5097147;28;20202;-87
2023/10/01 20:25:33;;;;;;;0.33;0.33;;;;;;;;;;5083436;28;20179;-85
2023/10/01 20:28:03;;;;;;;0.40;0.40;;;;;;;;;;5097754;28;20284;-88
2023/10/01 20:30:32;;;;;;;0.50;0.50;;;;;;;;;;5097539;28;20267;-88
2023/10/01 20:32:58;;;;;;;0.40;0.40;;;;;;;;;;5095464;28;20198;-88
2023/10/01 20:35:24;;;;;;;0.60;0.60;;;;;;;;;;5094902;28;20258;-88
2023/10/01 20:37:56;;;;;;;0.40;0.40;;;;;;;;;;5081420;28;20684;-89
2023/10/01 20:40:24;;;;;;;0.50;0.50;;;;;;;;;;5081102;28;20289;-88
2023/10/01 20:42:50;;;;;;;0.63;0.63;;;;;;;;;;5079953;28;20636;-90
2023/10/01 20:45:23;;;;;;;0.50;0.50;;;;;;;;;;5081086;28;20188;-91
2023/10/01 20:47:53;;;;;;;0.40;0.40;;;;;;;;;;5081932;28;20593;-86
2023/10/01 20:50:30;;;;;;;0.50;0.50;;;;;;;;;;5075703;28;20183;-89
2023/10/01 20:53:00;;;;;;;0.40;0.40;;;;;;;;;;5085615;28;20262;-88
2023/10/01 20:55:26;;;;;;;0.50;0.50;;;;;;;;;;5095681;28;20161;-89
2023/10/01 20:57:53;;;;;;;0.50;0.50;;;;;;;;;;5096825;28;20273;-89
2023/10/01 21:00:37;;;;;;;0.40;0.40;;;;;;;;;;5080490;28;20265;-89
2023/10/01 21:03:06;;;;;;;0.40;0.40;;;;;;;;;;5091302;28;20170;-89
2023/10/01 21:05:33;;;;;;;0.40;0.40;;;;;;;;;;5094981;28;20198;-87
2023/10/01 21:08:11;;;;;;;0.60;0.60;;;;;;;;;;5084158;28;20186;-89
2023/10/01 21:10:44;;;;;;;0.40;0.40;;;;;;;;;;5086452;28;20179;-87
2023/10/01 21:13:16;;;;;;;0.43;0.43;;;;;;;;;;5090830;28;20262;-89
2023/10/01 21:15:43;;;;;;;0.50;0.50;;;;;;;;;;5086386;28;20174;-90
2023/10/01 21:18:11;;;;;;;0.50;0.50;;;;;;;;;;5092151;28;20278;-90
2023/10/01 21:20:43;;;;;;;0.50;0.50;;;;;;;;;;5085820;28;20182;-90
2023/10/01 21:23:13;;;;;;;0.50;0.50;;;;;;;;;;5094717;28;20209;-89
2023/10/01 21:25:39;;;;;;;0.40;0.40;;;;;;;;;;5096708;28;20253;-89
2023/10/01 21:28:13;;;;;;;0.37;0.37;;;;;;;;;;5100332;28;20183;-88
2023/10/01 21:30:46;;;;;;;0.50;0.50;;;;;;;;;;5100779;28;20151;-90
2023/10/01 21:33:16;;;;;;;0.40;0.40;;;;;;;;;;5098884;28;20217;-90
2023/10/01 21:35:43;;;;;;;0.50;0.50;;;;;;;;;;5096530;28;20187;-89
2023/10/01 21:38:17;;;;;;;0.47;0.47;;;;;;;;;;5097108;28;20198;-89
2023/10/01 21:40:44;;;;;;;0.50;0.50;;;;;;;;;;5096860;28;20167;-89
2023/10/01 21:43:18;;;;;;;0.33;0.33;;;;;;;;;;5098624;28;20171;-89
2023/10/01 21:45:58;;;;;;;0.50;0.50;;;;;;;;;;5096507;28;20178;-89
2023/10/01 21:48:24;;;;;;;0.50;0.50;;;;;;;;;;5093723;28;20230;-89
2023/10/01 21:50:58;;;;;;;0.40;0.40;;;;;;;;;;5096406;28;20187;-89
2023/10/01 21:53:28;;;;;;;0.40;0.40;;;;;;;;;;5097748;28;20237;-88
2023/10/01 21:56:04;;;;;;;0.60;0.60;;;;;;;;;;5097430;28;20198;-90
2023/10/01 21:58:30;;;;;;;0.40;0.40;;;;;;;;;;5097500;28;20218;-89
2023/10/01 22:01:36;;;;;;;0.50;0.50;;;;;;;;;;5095721;28;20205;-88
2023/10/01 22:03:51;;;;;;;0.40;0.40;;;;;;;;;;5096123;28;20171;-89
2023/10/01 22:06:28;;;;;;;0.60;0.60;;;;;;;;;;5099460;28;20201;-88
2023/10/01 22:08:57;;;;;;;0.43;0.43;;;;;;;;;;5099269;28;20236;-88
2023/10/01 22:11:28;;;;;;;0.40;0.40;;;;;;;;;;5098978;28;20273;-89
2023/10/01 22:14:15;;;;;;;0.50;0.50;;;;;;;;;;5099613;28;20230;-87
2023/10/01 22:16:47;;;;;;;0.63;0.63;;;;;;;;;;5100487;28;20222;-88
2023/10/01 22:19:17;;;;;;;0.63;0.63;;;;;;;;;;5096112;28;20178;-90
2023/10/01 22:21:49;;;;;;;0.50;0.50;;;;;;;;;;5094528;28;20197;-89
2023/10/01 22:24:40;;;;;;;0.50;0.50;;;;;;;;;;5091998;28;20592;-90
2023/10/01 22:27:07;;;;;;;0.30;0.30;;;;;;;;;;5103782;28;20178;-90
2023/10/01 22:29:35;;;;;;;0.60;0.60;;;;;;;;;;5088942;28;20181;-90
2023/10/01 22:32:02;;;;;;;0.50;0.50;;;;;;;;;;5103438;28;20185;-88
2023/10/01 22:34:29;;;;;;;0.53;0.53;;;;;;;;;;5108783;28;20162;-89
2023/10/01 22:36:58;;;;;;;0.57;0.57;;;;;;;;;;5092662;28;20187;-90
2023/10/01 22:39:25;;;;;;;0.50;0.50;;;;;;;;;;5091253;28;20174;-90
2023/10/01 22:41:55;;;;;;;0.50;0.50;;;;;;;;;;5099235;28;20201;-90
2023/10/01 22:44:28;;;;;;;0.50;0.50;;;;;;;;;;5116849;28;20166;-89
2023/10/01 22:47:08;;;;;;;0.40;0.40;;;;;;;;;;5119207;28;20169;-88
2023/10/01 22:49:34;;;;;;;0.40;0.40;;;;;;;;;;5119235;28;20162;-85
2023/10/01 22:52:07;;;;;;;0.50;0.50;;;;;;;;;;5118598;28;20247;-89
2023/10/01 22:54:33;;;;;;;0.50;0.50;;;;;;;;;;5118873;28;20188;-90
2023/10/01 22:57:01;;;;;;;0.50;0.50;;;;;;;;;;5116695;27;20248;-90
2023/10/01 22:59:27;;;;;;;0.50;0.50;;;;;;;;;;5115143;28;20180;-90
2023/10/01 23:01:57;;;;;;;0.50;0.50;;;;;;;;;;5104517;28;20194;-91
2023/10/01 23:04:27;;;;;;;0.40;0.40;;;;;;;;;;5097385;28;20202;-90
2023/10/01 23:06:53;;;;;;;0.50;0.50;;;;;;;;;;5091513;28;20166;-90
2023/10/01 23:09:20;;;;;;;0.50;0.50;;;;;;;;;;5088393;28;20266;-89
2023/10/01 23:11:49;;;;;;;0.50;0.50;;;;;;;;;;5079779;28;20293;-90
2023/10/01 23:14:20;;;;;;;0.40;0.40;;;;;;;;;;5075883;28;20186;-89
2023/10/01 23:16:46;;;;;;;0.40;0.40;;;;;;;;;;5074709;28;20175;-90
2023/10/01 23:19:34;;;;;;;0.50;0.50;;;;;;;;;;5076954;28;20257;-91
2023/10/01 23:22:04;;;;;;;0.40;0.40;;;;;;;;;;5074054;28;20667;-91
2023/10/01 23:24:48;;;;;;;0.50;0.50;;;;;;;;;;5075030;28;20208;-91
2023/10/01 23:27:16;;;;;;;0.60;0.60;;;;;;;;;;5074135;28;20182;-91
2023/10/01 23:29:42;;;;;;;0.47;0.47;;;;;;;;;;5075791;28;20171;-90
2023/10/01 23:32:33;;;;;;;0.40;0.40;;;;;;;;;;5074880;28;20201;-91
2023/10/01 23:35:00;;;;;;;0.40;0.40;;;;;;;;;;5075620;28;20178;-91
2023/10/01 23:37:39;;;;;;;0.50;0.50;;;;;;;;;;5078624;28;20210;-89
2023/10/01 23:40:23;;;;;;;0.60;0.60;;;;;;;;;;5097560;28;20162;-89
2023/10/01 23:42:49;;;;;;;0.60;0.60;;;;;;;;;;5094342;28;20206;-90
2023/10/01 23:45:16;;;;;;;0.60;0.60;;;;;;;;;;5077575;28;20546;-91
2023/10/01 23:47:45;;;;;;;0.40;0.40;;;;;;;;;;5081339;28;20166;-89
2023/10/01 23:50:27;;;;;;;0.50;0.50;;;;;;;;;;5098842;28;20163;-89
2023/10/01 23:52:54;;;;;;;0.50;0.50;;;;;;;;;;5098802;28;20204;-90
2023/10/01 23:55:26;;;;;;;0.50;0.50;;;;;;;;;;5098383;28;20175;-89
2023/10/01 23:58:11;;;;;;;0.50;0.50;;;;;;;;;;5086056;28;20226;-91
